Time;durP1;ratioP1;P1;durP2;ratioP2;P2;SDS_P1;SDS_P2;PMS_P1;PMS_P2;Temp;Humidity;BMP_temperature;BMP_pressure;BME280_temperature;BME280_humidity;BME280_pressure;Samples;Min_cycle;Max_cycle;Signal;HPM_P1;HPM_P2
2023/12/11 00:01:04;;;;;;;23.88;19.75;;;;;;;1.94;100.00;99695.50;5030290;28;20108;-77
2023/12/11 00:03:29;;;;;;;23.52;20.38;;;;;;;2.00;100.00;99684.72;5029814;28;20033;-77
2023/12/11 00:05:55;;;;;;;22.17;19.85;;;;;;;1.94;100.00;99682.47;5029744;28;20100;-77
2023/12/11 00:08:20;;;;;;;23.48;19.77;;;;;;;1.86;100.00;99689.88;5030555;28;20402;-77
2023/12/11 00:10:46;;;;;;;24.63;20.48;;;;;;;1.91;100.00;99692.22;5030614;28;20108;-78
2023/12/11 00:13:11;;;;;;;26.90;21.05;;;;;;;1.90;100.00;99699.16;5012796;28;20481;-77
2023/12/11 00:15:37;;;;;;;24.83;20.23;;;;;;;1.88;100.00;99706.25;5030971;28;20398;-78
2023/12/11 00:18:02;;;;;;;25.83;20.80;;;;;;;1.91;100.00;99711.25;5030682;28;20475;-76
2023/12/11 00:20:28;;;;;;;23.83;20.17;;;;;;;1.95;100.00;99699.75;5029783;28;20037;-77
2023/12/11 00:22:54;;;;;;;23.50;20.95;;;;;;;2.03;100.00;99684.56;5031618;28;20499;-77
2023/12/11 00:25:19;;;;;;;25.73;20.55;;;;;;;2.09;100.00;99687.75;5030338;28;20104;-77
2023/12/11 00:27:46;;;;;;;24.00;20.02;;;;;;;2.14;100.00;99706.53;5030622;28;20041;-77
2023/12/11 00:30:12;;;;;;;25.15;20.17;;;;;;;2.20;100.00;99706.19;5026300;28;20033;-77
2023/12/11 00:32:38;;;;;;;23.33;19.58;;;;;;;2.26;100.00;99695.44;5030507;28;20470;-77
2023/12/11 00:35:04;;;;;;;24.40;20.25;;;;;;;2.22;100.00;99696.53;5030092;28;20442;-77
2023/12/11 00:37:30;;;;;;;23.75;20.55;;;;;;;2.12;100.00;99683.19;5030408;28;20072;-78
2023/12/11 00:39:55;;;;;;;24.13;20.80;;;;;;;2.12;100.00;99664.16;5030669;28;20053;-77
2023/12/11 00:42:21;;;;;;;25.45;20.55;;;;;;;2.14;100.00;99654.47;5030067;28;20033;-77
2023/12/11 00:44:47;;;;;;;25.42;19.67;;;;;;;2.09;100.00;99656.50;5033955;28;20535;-78
2023/12/11 00:47:13;;;;;;;22.95;19.60;;;;;;;2.10;100.00;99647.78;5033339;28;20033;-78
2023/12/11 00:49:38;;;;;;;25.42;20.90;;;;;;;2.00;100.00;99637.88;5033443;28;20033;-78
2023/12/11 00:52:04;;;;;;;24.88;21.25;;;;;;;2.02;100.00;99615.19;5033815;28;20029;-78
2023/12/11 00:54:30;;;;;;;27.90;21.60;;;;;;;2.08;100.00;99610.56;5033550;28;20141;-78
2023/12/11 00:56:56;;;;;;;24.83;20.83;;;;;;;2.14;100.00;99607.63;5034294;28;20138;-78
2023/12/11 00:59:21;;;;;;;25.80;21.95;;;;;;;2.17;100.00;99617.88;5034209;28;20022;-78
2023/12/11 01:01:48;;;;;;;25.58;20.83;;;;;;;2.16;100.00;99616.19;5033927;28;20116;-79
2023/12/11 01:04:13;;;;;;;27.00;22.10;;;;;;;2.12;100.00;99614.69;5016009;28;20026;-79
2023/12/11 01:06:39;;;;;;;28.08;21.52;;;;;;;2.10;100.00;99606.97;5034642;28;20032;-79
2023/12/11 01:09:04;;;;;;;25.20;21.05;;;;;;;2.09;100.00;99599.25;5036814;28;20108;-79
2023/12/11 01:11:30;;;;;;;27.05;21.20;;;;;;;1.99;100.00;99604.97;5036232;28;20673;-78
2023/12/11 01:13:55;;;;;;;27.10;21.50;;;;;;;2.05;100.00;99604.63;5036084;28;20103;-78
2023/12/11 01:16:21;;;;;;;25.40;21.40;;;;;;;2.08;100.00;99602.75;5035847;28;20536;-77
2023/12/11 01:18:47;;;;;;;25.13;20.00;;;;;;;2.05;100.00;99596.81;5035504;28;20052;-78
2023/12/11 01:21:12;;;;;;;26.23;22.60;;;;;;;2.08;100.00;99597.56;5034219;28;20148;-77
2023/12/11 01:23:38;;;;;;;25.90;21.25;;;;;;;2.08;100.00;99593.19;5035028;28;20365;-78
2023/12/11 01:26:04;;;;;;;25.85;20.05;;;;;;;2.05;100.00;99594.22;5033431;28;20409;-77
2023/12/11 01:28:29;;;;;;;25.30;21.13;;;;;;;2.09;100.00;99600.06;5034212;28;20038;-79
2023/12/11 01:30:55;;;;;;;25.10;20.80;;;;;;;2.05;100.00;99599.44;5034616;28;20076;-77
2023/12/11 01:33:20;;;;;;;23.70;20.33;;;;;;;2.04;100.00;99626.38;5033847;28;20037;-78
2023/12/11 01:35:46;;;;;;;26.42;22.25;;;;;;;2.01;100.00;99652.56;5016073;28;20404;-77
2023/12/11 01:38:11;;;;;;;25.00;20.48;;;;;;;2.00;100.00;99617.03;5033846;28;20087;-78
2023/12/11 01:40:37;;;;;;;23.73;20.75;;;;;;;1.99;100.00;99610.19;5034145;28;20034;-77
2023/12/11 01:43:15;;;;;;;24.75;20.52;;;;;;;1.99;100.00;99640.56;5033939;28;20053;-77
2023/12/11 01:45:41;;;;;;;25.95;20.48;;;;;;;1.97;100.00;99632.84;5029453;28;20124;-77
2023/12/11 01:48:10;;;;;;;23.83;20.88;;;;;;;1.98;100.00;99624.13;5033236;28;20121;-77
2023/12/11 01:50:38;;;;;;;23.58;19.88;;;;;;;2.00;100.00;99601.44;5032804;28;20553;-78
2023/12/11 01:53:05;;;;;;;23.00;20.35;;;;;;;2.00;100.00;99596.22;5033691;28;20033;-78
2023/12/11 01:55:33;;;;;;;26.00;21.42;;;;;;;2.01;100.00;99587.50;5032082;28;20904;-77
2023/12/11 01:58:00;;;;;;;24.35;20.33;;;;;;;2.01;100.00;99597.06;5032670;28;20056;-76
2023/12/11 02:00:26;;;;;;;25.23;20.55;;;;;;;1.99;100.00;99604.97;5031695;28;20036;-78
2023/12/11 02:02:51;;;;;;;25.25;20.55;;;;;;;1.98;100.00;99592.91;5031971;28;20033;-77
2023/12/11 02:05:18;;;;;;;26.40;20.67;;;;;;;2.01;100.00;99584.91;5035731;28;20071;-78
2023/12/11 02:07:43;;;;;;;25.73;20.73;;;;;;;2.01;100.00;99600.50;5040175;28;20041;-77
2023/12/11 02:10:09;;;;;;;25.73;20.58;;;;;;;2.03;100.00;99627.28;5046484;28;20389;-77
2023/12/11 02:12:35;;;;;;;24.95;20.25;;;;;;;2.01;100.00;99633.50;5040510;28;20106;-78
2023/12/11 02:15:00;;;;;;;23.92;20.35;;;;;;;1.98;100.00;99616.31;5035218;28;20056;-78
2023/12/11 02:17:26;;;;;;;24.73;21.50;;;;;;;1.97;100.00;99573.00;5033887;28;20613;-79
2023/12/11 02:19:51;;;;;;;24.42;20.23;;;;;;;1.97;100.00;99575.59;5032321;28;20037;-78
2023/12/11 02:22:17;;;;;;;23.92;20.75;;;;;;;2.06;100.00;99587.25;5010249;28;20076;-77
2023/12/11 02:24:48;;;;;;;24.58;19.67;;;;;;;2.12;100.00;99599.88;5032789;28;20060;-77
2023/12/11 02:27:14;;;;;;;24.88;19.92;;;;;;;2.17;100.00;99600.47;5013807;28;20098;-78
2023/12/11 02:29:39;;;;;;;25.58;20.90;;;;;;;2.17;100.00;99597.03;5035377;28;20041;-78
2023/12/11 02:32:05;;;;;;;25.67;21.52;;;;;;;2.09;100.00;99615.69;5032247;28;20116;-76
2023/12/11 02:34:30;;;;;;;23.95;20.17;;;;;;;2.02;100.00;99594.38;5032028;28;20096;-78
2023/12/11 02:36:56;;;;;;;25.60;20.80;;;;;;;1.98;100.00;99576.44;5031705;28;20120;-78
2023/12/11 02:39:24;;;;;;;25.52;21.25;;;;;;;1.89;100.00;99574.34;5014557;28;20424;-77
2023/12/11 02:41:49;;;;;;;23.77;20.33;;;;;;;1.99;100.00;99572.91;5032859;28;20036;-76
2023/12/11 02:44:15;;;;;;;25.10;21.83;;;;;;;2.03;100.00;99585.66;5032803;28;20092;-77
2023/12/11 02:46:40;;;;;;;26.83;22.90;;;;;;;2.07;100.00;99594.09;5033504;28;20113;-77
2023/12/11 02:49:06;;;;;;;27.48;21.25;;;;;;;2.04;100.00;99582.13;5039485;28;20028;-77
2023/12/11 02:51:31;;;;;;;24.67;20.80;;;;;;;2.08;100.00;99576.72;5033238;28;20133;-77
2023/12/11 02:53:57;;;;;;;25.90;21.02;;;;;;;2.18;100.00;99577.91;5033591;28;20089;-76
2023/12/11 02:56:22;;;;;;;26.02;20.85;;;;;;;2.21;100.00;99570.72;5032684;28;20030;-77
2023/12/11 02:58:48;;;;;;;27.60;21.88;;;;;;;2.03;100.00;99570.03;5033321;28;20478;-77
2023/12/11 03:01:15;;;;;;;25.58;20.90;;;;;;;1.86;100.00;99566.72;5032620;28;20068;-78
2023/12/11 03:03:41;;;;;;;24.00;20.70;;;;;;;1.82;100.00;99554.84;5025692;28;20029;-78
2023/12/11 03:06:08;;;;;;;26.33;21.90;;;;;;;1.81;100.00;99554.00;5031113;28;20103;-78
2023/12/11 03:08:36;;;;;;;25.27;21.77;;;;;;;1.80;100.00;99554.91;5031729;28;20026;-78
2023/12/11 03:11:02;;;;;;;24.85;20.77;;;;;;;1.83;100.00;99557.31;5031501;28;20477;-78
2023/12/11 03:13:27;;;;;;;23.88;20.85;;;;;;;1.80;100.00;99552.31;5030521;28;20099;-76
2023/12/11 03:15:53;;;;;;;26.48;21.95;;;;;;;1.75;100.00;99554.34;5032056;28;20033;-77
2023/12/11 03:18:18;;;;;;;25.67;21.00;;;;;;;1.74;100.00;99552.66;5031484;28;20481;-77
2023/12/11 03:20:44;;;;;;;26.95;22.35;;;;;;;1.63;100.00;99544.63;5032269;28;20065;-77
2023/12/11 03:23:10;;;;;;;26.58;21.15;;;;;;;1.52;100.00;99545.25;5031128;28;20470;-77
2023/12/11 03:25:35;;;;;;;27.13;20.63;;;;;;;1.44;100.00;99530.97;5031554;28;20042;-78
2023/12/11 03:28:00;;;;;;;27.80;22.13;;;;;;;1.42;100.00;99525.00;5031345;28;20033;-77
2023/12/11 03:30:26;;;;;;;24.77;21.35;;;;;;;1.43;100.00;99526.69;5031407;28;20140;-76
2023/12/11 03:32:52;;;;;;;26.52;21.77;;;;;;;1.46;100.00;99547.34;5032384;28;20394;-79
2023/12/11 03:35:18;;;;;;;26.50;21.42;;;;;;;1.49;100.00;99557.56;5042664;28;20094;-76
2023/12/11 03:37:44;;;;;;;27.55;22.35;;;;;;;1.48;100.00;99540.28;5040322;28;20040;-78
2023/12/11 03:40:10;;;;;;;26.33;21.63;;;;;;;1.52;100.00;99547.84;5025144;28;20540;-77
2023/12/11 03:42:35;;;;;;;26.27;21.52;;;;;;;1.58;100.00;99531.06;5025508;28;20032;-78
2023/12/11 03:45:02;;;;;;;25.52;21.98;;;;;;;1.55;100.00;99531.22;5041667;28;20033;-78
2023/12/11 03:47:28;;;;;;;26.10;21.08;;;;;;;1.59;100.00;99517.13;5041541;28;20369;-76
2023/12/11 03:49:54;;;;;;;25.70;21.55;;;;;;;1.65;100.00;99509.78;5024507;28;20521;-77
2023/12/11 03:52:20;;;;;;;24.13;21.25;;;;;;;1.72;100.00;99525.88;5040334;28;20120;-78
2023/12/11 03:54:46;;;;;;;24.73;20.75;;;;;;;1.74;100.00;99490.22;5043277;28;20056;-78
2023/12/11 03:57:12;;;;;;;26.13;20.80;;;;;;;1.77;100.00;99458.81;5042462;28;20029;-78
2023/12/11 03:59:37;;;;;;;26.02;21.25;;;;;;;1.74;100.00;99440.78;5039919;28;20025;-78
2023/12/11 04:02:03;;;;;;;24.02;20.75;;;;;;;1.82;100.00;99471.56;5041871;28;20025;-78
2023/12/11 04:04:28;;;;;;;28.05;21.60;;;;;;;1.76;100.00;99497.94;5040688;28;20388;-75
2023/12/11 04:06:54;;;;;;;28.38;21.88;;;;;;;1.74;100.00;99557.03;5040273;28;20057;-77
2023/12/11 04:09:19;;;;;;;26.58;21.33;;;;;;;1.73;100.00;99569.19;5041889;28;20031;-78
2023/12/11 04:11:45;;;;;;;25.63;20.98;;;;;;;1.70;100.00;99560.72;5039205;28;20030;-77
2023/12/11 04:14:11;;;;;;;27.42;21.08;;;;;;;1.66;100.00;99534.03;5024717;28;20029;-77
2023/12/11 04:16:40;;;;;;;28.55;22.42;;;;;;;1.64;100.00;99526.34;5042236;28;20037;-78
2023/12/11 04:19:05;;;;;;;27.02;21.50;;;;;;;1.67;100.00;99508.88;5039275;28;20029;-77
2023/12/11 04:21:31;;;;;;;29.00;22.55;;;;;;;1.65;100.00;99521.94;5041287;28;20068;-77
2023/12/11 04:23:56;;;;;;;33.53;25.48;;;;;;;1.61;100.00;99562.06;5041188;28;20028;-77
2023/12/11 04:26:23;;;;;;;24.58;21.58;;;;;;;1.59;100.00;99558.75;5044591;28;20048;-76
2023/12/11 04:28:49;;;;;;;25.60;22.30;;;;;;;1.60;100.00;99552.59;5039469;28;20041;-77
2023/12/11 04:31:15;;;;;;;25.52;21.45;;;;;;;1.66;100.00;99544.44;5024043;28;20086;-77
2023/12/11 04:33:40;;;;;;;25.92;21.15;;;;;;;1.72;100.00;99554.50;5038796;28;20098;-76
2023/12/11 04:36:08;;;;;;;26.25;21.55;;;;;;;1.75;100.00;99550.91;5041661;28;20132;-76
2023/12/11 04:38:33;;;;;;;27.02;21.73;;;;;;;1.80;100.00;99565.31;5041889;28;20033;-76
2023/12/11 04:40:59;;;;;;;26.60;21.98;;;;;;;1.82;100.00;99571.28;5041324;28;20025;-77
2023/12/11 04:43:24;;;;;;;24.50;21.55;;;;;;;1.88;100.00;99575.28;5023387;28;20396;-76
2023/12/11 04:45:50;;;;;;;25.45;22.20;;;;;;;1.89;100.00;99577.78;5044410;28;20100;-76
2023/12/11 04:48:15;;;;;;;30.00;22.13;;;;;;;1.90;100.00;99578.63;5057745;28;20040;-76
2023/12/11 04:50:41;;;;;;;24.83;21.38;;;;;;;1.96;100.00;99570.47;5038721;28;20130;-76
2023/12/11 04:53:06;;;;;;;26.58;21.27;;;;;;;2.01;100.00;99581.44;5040142;28;20029;-76
2023/12/11 04:55:33;;;;;;;25.45;21.13;;;;;;;2.05;100.00;99578.59;5041261;28;20090;-77
2023/12/11 04:57:58;;;;;;;27.92;22.05;;;;;;;2.09;100.00;99594.03;5042073;28;20041;-78
2023/12/11 05:00:24;;;;;;;26.60;22.10;;;;;;;2.10;100.00;99586.13;5024481;28;20832;-78
2023/12/11 05:02:49;;;;;;;24.00;20.40;;;;;;;2.08;100.00;99569.75;5041895;28;20029;-77
2023/12/11 05:05:16;;;;;;;24.38;20.60;;;;;;;2.09;100.00;99557.59;5038524;28;20466;-77
2023/12/11 05:07:42;;;;;;;28.13;21.40;;;;;;;2.02;100.00;99550.13;5038908;28;20513;-77
2023/12/11 05:10:08;;;;;;;37.58;22.40;;;;;;;1.95;100.00;99567.03;5041819;28;20072;-76
2023/12/11 05:12:33;;;;;;;25.27;22.02;;;;;;;1.90;100.00;99579.47;5039060;28;20064;-78
2023/12/11 05:15:01;;;;;;;22.52;19.70;;;;;;;1.92;100.00;99576.78;5022649;28;20444;-77
2023/12/11 05:17:27;;;;;;;24.02;20.60;;;;;;;1.92;100.00;99567.22;5022958;28;20052;-77
2023/12/11 05:19:53;;;;;;;24.58;20.33;;;;;;;1.97;100.00;99564.34;5039167;28;20072;-77
2023/12/11 05:22:18;;;;;;;23.25;20.75;;;;;;;1.95;100.00;99559.22;5041268;28;20155;-77
2023/12/11 05:24:44;;;;;;;23.50;19.77;;;;;;;2.00;100.00;99570.19;5038598;28;20087;-77
2023/12/11 05:27:11;;;;;;;23.30;19.55;;;;;;;2.01;100.00;99571.88;5043384;28;20024;-77
2023/12/11 05:29:37;;;;;;;22.50;19.75;;;;;;;2.02;100.00;99542.31;5022879;28;20052;-77
2023/12/11 05:32:02;;;;;;;23.92;20.70;;;;;;;1.91;100.00;99528.25;5044279;28;20018;-77
2023/12/11 05:34:28;;;;;;;25.02;21.15;;;;;;;1.99;100.00;99526.91;5043033;28;20128;-76
2023/12/11 05:36:54;;;;;;;25.27;20.88;;;;;;;2.03;100.00;99528.41;5042929;28;20524;-76
2023/12/11 05:39:19;;;;;;;24.50;20.23;;;;;;;2.03;100.00;99523.19;5042629;28;20065;-76
2023/12/11 05:41:45;;;;;;;24.60;21.05;;;;;;;1.91;100.00;99518.69;5045332;28;20041;-77
2023/12/11 05:44:10;;;;;;;27.77;22.30;;;;;;;1.94;100.00;99513.34;5047887;28;20391;-77
2023/12/11 05:46:36;;;;;;;26.33;22.13;;;;;;;1.97;100.00;99528.75;5046538;28;20040;-77
2023/12/11 05:49:01;;;;;;;27.35;22.75;;;;;;;1.98;100.00;99561.66;5046914;28;20079;-77
2023/12/11 05:51:28;;;;;;;25.23;20.73;;;;;;;1.90;100.00;99573.44;5047022;28;20120;-77
2023/12/11 05:53:55;;;;;;;27.23;21.90;;;;;;;1.80;100.00;99577.50;5046401;28;20167;-76
2023/12/11 05:56:21;;;;;;;26.52;21.48;;;;;;;1.75;100.00;99603.78;5048050;28;20036;-75
2023/12/11 05:58:46;;;;;;;25.38;21.02;;;;;;;1.72;100.00;99580.50;5050983;28;20021;-75
2023/12/11 06:01:12;;;;;;;23.33;20.55;;;;;;;1.74;100.00;99593.44;5042683;28;20041;-76
2023/12/11 06:03:38;;;;;;;29.30;21.83;;;;;;;1.75;100.00;99592.53;5045583;28;20040;-74
2023/12/11 06:06:03;;;;;;;26.35;21.17;;;;;;;1.73;100.00;99603.00;5022433;28;20045;-77
2023/12/11 06:08:29;;;;;;;25.55;20.42;;;;;;;1.71;100.00;99584.03;5043765;28;20126;-76
2023/12/11 06:10:58;;;;;;;26.52;19.88;;;;;;;1.64;100.00;99588.78;5048697;28;20363;-78
2023/12/11 06:13:23;;;;;;;24.27;20.55;;;;;;;1.61;100.00;99582.88;5051265;28;20029;-76
2023/12/11 06:15:48;;;;;;;26.13;21.42;;;;;;;1.64;100.00;99577.53;5047855;28;20031;-76
2023/12/11 06:18:14;;;;;;;26.00;21.17;;;;;;;1.66;100.00;99586.06;5027255;28;20064;-80
2023/12/11 06:20:39;;;;;;;27.33;21.33;;;;;;;1.65;100.00;99584.38;5045081;28;20087;-76
2023/12/11 06:23:05;;;;;;;26.00;20.67;;;;;;;1.63;100.00;99576.69;5042310;28;20113;-74
2023/12/11 06:25:31;;;;;;;26.15;20.63;;;;;;;1.63;100.00;99581.03;5043235;28;20033;-74
2023/12/11 06:27:57;;;;;;;31.10;24.02;;;;;;;1.64;100.00;99590.53;5043532;28;20025;-73
2023/12/11 06:30:23;;;;;;;29.38;23.10;;;;;;;1.66;100.00;99580.84;5044376;28;20130;-75
2023/12/11 06:32:48;;;;;;;30.05;22.95;;;;;;;1.67;100.00;99579.94;5044346;28;20430;-78
2023/12/11 06:35:14;;;;;;;28.33;21.98;;;;;;;1.68;100.00;99589.44;5031624;28;20064;-77
2023/12/11 06:37:40;;;;;;;30.85;22.52;;;;;;;1.69;100.00;99585.91;5033188;28;20033;-75
2023/12/11 06:40:06;;;;;;;27.50;21.58;;;;;;;1.70;100.00;99586.75;5030269;28;20064;-74
2023/12/11 06:42:36;;;;;;;23.75;20.60;;;;;;;1.72;100.00;99570.09;5032688;28;20756;-74
2023/12/11 06:45:02;;;;;;;25.17;20.95;;;;;;;1.74;100.00;99555.25;5032192;28;20034;-73
2023/12/11 06:47:28;;;;;;;27.25;21.25;;;;;;;1.77;100.00;99562.06;5031525;28;20440;-74
2023/12/11 06:49:56;;;;;;;27.75;21.58;;;;;;;1.78;100.00;99590.56;5031601;28;20116;-73
2023/12/11 06:52:21;;;;;;;25.23;21.45;;;;;;;1.76;100.00;99591.59;5029463;28;20025;-75
2023/12/11 06:54:47;;;;;;;27.02;22.15;;;;;;;1.75;100.00;99582.97;5015046;28;20109;-76
2023/12/11 06:57:13;;;;;;;26.00;21.70;;;;;;;1.74;100.00;99594.28;5014542;28;20034;-76
2023/12/11 06:59:39;;;;;;;26.58;21.38;;;;;;;1.71;100.00;99580.63;5032442;28;20558;-72
2023/12/11 07:02:04;;;;;;;26.73;22.25;;;;;;;1.75;100.00;99590.75;5030847;28;20041;-73
2023/12/11 07:04:30;;;;;;;24.48;21.85;;;;;;;1.77;100.00;99588.88;5032045;28;20049;-73
2023/12/11 07:06:55;;;;;;;29.05;22.67;;;;;;;1.74;100.00;99576.06;5031946;28;20105;-74
2023/12/11 07:09:21;;;;;;;26.73;22.10;;;;;;;1.59;100.00;99569.16;5031999;28;20470;-74
2023/12/11 07:11:48;;;;;;;26.13;21.92;;;;;;;1.65;100.00;99537.56;5032789;28;20120;-73
2023/12/11 07:14:14;;;;;;;26.63;21.88;;;;;;;1.63;100.00;99549.84;5033445;28;20021;-74
2023/12/11 07:16:39;;;;;;;24.55;21.48;;;;;;;1.66;100.00;99570.44;5036116;28;20397;-74
2023/12/11 07:19:06;;;;;;;28.35;21.40;;;;;;;1.69;100.00;99580.69;5032921;28;20093;-78
2023/12/11 07:21:32;;;;;;;25.55;22.58;;;;;;;1.69;100.00;99570.28;5032038;28;20041;-73
2023/12/11 07:24:02;;;;;;;28.20;21.92;;;;;;;1.81;100.00;99554.00;5031979;28;20033;-74
2023/12/11 07:26:28;;;;;;;29.67;23.10;;;;;;;1.86;100.00;99520.72;5030956;28;20293;-75
2023/12/11 07:28:54;;;;;;;30.05;22.65;;;;;;;2.01;100.00;99525.03;5029100;28;20191;-73
2023/12/11 07:31:20;;;;;;;27.27;22.77;;;;;;;2.11;100.00;99516.69;5027796;28;20029;-74
2023/12/11 07:33:45;;;;;;;27.67;22.02;;;;;;;2.20;100.00;99490.94;5015982;28;20049;-75
2023/12/11 07:36:11;;;;;;;29.67;23.88;;;;;;;2.26;100.00;99487.13;5046848;28;20032;-76
2023/12/11 07:38:37;;;;;;;31.70;23.52;;;;;;;2.31;100.00;99508.53;5040571;28;20505;-74
2023/12/11 07:41:05;;;;;;;27.05;22.30;;;;;;;2.33;100.00;99528.34;5046686;28;20104;-74
2023/12/11 07:43:30;;;;;;;28.45;21.77;;;;;;;2.37;100.00;99526.38;5050539;28;20032;-71
2023/12/11 07:45:56;;;;;;;27.30;22.15;;;;;;;2.46;100.00;99529.28;5050095;28;20041;-73
2023/12/11 07:48:21;;;;;;;28.05;22.13;;;;;;;2.49;100.00;99525.66;5050337;28;20044;-74
2023/12/11 07:50:47;;;;;;;29.23;21.33;;;;;;;2.45;100.00;99539.78;5032201;28;20128;-73
2023/12/11 07:53:12;;;;;;;29.83;22.10;;;;;;;2.41;100.00;99543.53;5049956;28;20139;-74
2023/12/11 07:55:38;;;;;;;27.17;21.98;;;;;;;2.43;100.00;99520.81;5049971;28;20033;-73
2023/12/11 07:58:04;;;;;;;26.98;21.70;;;;;;;2.51;100.00;99529.00;5052181;28;20021;-75
2023/12/11 08:00:29;;;;;;;26.60;21.23;;;;;;;2.49;100.00;99525.66;5051092;28;20036;-74
2023/12/11 08:02:55;;;;;;;30.73;22.23;;;;;;;2.53;100.00;99521.94;5049794;28;20044;-73
2023/12/11 08:05:21;;;;;;;24.85;20.73;;;;;;;2.60;100.00;99523.22;5050077;28;20055;-74
2023/12/11 08:07:47;;;;;;;28.10;21.42;;;;;;;2.65;100.00;99530.78;5047349;28;20029;-74
2023/12/11 08:10:12;;;;;;;25.67;20.92;;;;;;;2.70;100.00;99529.56;5049591;28;20025;-74
2023/12/11 08:12:38;;;;;;;26.33;21.92;;;;;;;2.71;100.00;99531.22;5050376;28;20457;-74
2023/12/11 08:15:04;;;;;;;26.65;21.55;;;;;;;2.76;100.00;99544.84;5050221;28;20037;-74
2023/12/11 08:17:29;;;;;;;27.95;21.70;;;;;;;2.83;100.00;99517.44;5050114;28;21579;-73
2023/12/11 08:19:55;;;;;;;27.75;21.90;;;;;;;2.87;100.00;99526.75;5047956;28;20063;-74
2023/12/11 08:22:20;;;;;;;23.83;21.17;;;;;;;2.83;100.00;99525.25;5049964;28;20025;-75
2023/12/11 08:24:46;;;;;;;28.67;21.13;;;;;;;2.81;100.00;99536.72;5050359;28;20029;-74
2023/12/11 08:27:11;;;;;;;27.50;21.45;;;;;;;2.79;100.00;99533.38;5050108;28;20033;-74
2023/12/11 08:29:37;;;;;;;26.88;21.05;;;;;;;2.84;100.00;99536.53;5049863;28;20036;-75
2023/12/11 08:32:03;;;;;;;27.58;22.08;;;;;;;2.83;100.00;99499.19;5050328;28;20032;-74
2023/12/11 08:34:29;;;;;;;27.13;20.05;;;;;;;2.82;100.00;99494.09;5049444;28;20047;-74
2023/12/11 08:36:55;;;;;;;26.95;21.75;;;;;;;2.78;100.00;99503.84;5049648;28;20124;-74
2023/12/11 08:39:21;;;;;;;28.60;22.05;;;;;;;2.71;100.00;99501.75;5049513;28;20033;-74
2023/12/11 08:41:48;;;;;;;26.00;21.42;;;;;;;2.75;100.00;99490.19;5049940;28;20138;-75
2023/12/11 08:44:13;;;;;;;27.65;21.52;;;;;;;2.81;100.00;99497.63;5049476;28;20443;-76
2023/12/11 08:46:39;;;;;;;28.48;21.42;;;;;;;2.82;100.00;99515.78;5029795;28;20033;-75
2023/12/11 08:49:05;;;;;;;25.70;21.67;;;;;;;2.78;100.00;99516.88;5050121;28;20478;-74
2023/12/11 08:51:30;;;;;;;29.40;22.48;;;;;;;2.78;100.00;99522.09;5049574;28;20182;-74
2023/12/11 08:53:56;;;;;;;27.23;22.25;;;;;;;2.72;100.00;99542.47;5047025;28;20025;-74
2023/12/11 08:56:23;;;;;;;25.92;22.48;;;;;;;2.71;100.00;99535.63;5046950;28;20033;-76
2023/12/11 08:58:50;;;;;;;29.13;22.67;;;;;;;2.70;100.00;99539.16;5049454;28;20361;-78
2023/12/11 09:01:17;;;;;;;30.75;23.73;;;;;;;2.67;100.00;99540.16;5046726;28;20037;-78
2023/12/11 09:03:44;;;;;;;28.65;23.30;;;;;;;2.69;100.00;99527.88;5049490;28;20025;-77
2023/12/11 09:06:10;;;;;;;27.88;23.05;;;;;;;2.71;100.00;99512.16;5053435;28;20053;-77
2023/12/11 09:08:36;;;;;;;30.70;24.10;;;;;;;2.81;100.00;99524.53;5053484;28;20032;-77
2023/12/11 09:11:01;;;;;;;28.27;23.27;;;;;;;2.78;100.00;99542.09;5053670;28;20039;-77
2023/12/11 09:13:27;;;;;;;30.85;24.40;;;;;;;2.82;100.00;99521.00;5048039;28;20398;-78
2023/12/11 09:15:52;;;;;;;30.98;23.85;;;;;;;3.01;100.00;99488.53;5043215;28;20116;-78
2023/12/11 09:18:18;;;;;;;29.88;22.85;;;;;;;3.05;100.00;99490.03;5045685;28;20036;-77
2023/12/11 09:20:44;;;;;;;27.20;22.38;;;;;;;2.98;100.00;99487.00;5047610;28;20037;-76
2023/12/11 09:23:10;;;;;;;31.50;23.13;;;;;;;2.98;100.00;99505.22;5053230;28;20042;-76
2023/12/11 09:25:36;;;;;;;28.15;22.27;;;;;;;3.01;100.00;99512.00;5047130;28;20114;-76
2023/12/11 09:28:04;;;;;;;29.75;22.70;;;;;;;3.08;100.00;99510.69;5044482;28;20029;-75
2023/12/11 09:30:30;;;;;;;29.55;22.27;;;;;;;3.05;100.00;99524.78;5030773;28;20945;-75
2023/12/11 09:32:55;;;;;;;27.02;21.40;;;;;;;2.95;100.00;99530.63;5047853;28;20040;-76
2023/12/11 09:35:21;;;;;;;29.63;23.13;;;;;;;2.93;100.00;99545.56;5033298;28;20037;-74
2023/12/11 09:37:46;;;;;;;29.52;23.13;;;;;;;2.97;100.00;99544.41;5015748;28;20040;-74
2023/12/11 09:40:12;;;;;;;34.08;24.42;;;;;;;2.99;100.00;99529.53;5029269;28;20083;-75
2023/12/11 09:42:42;;;;;;;32.28;24.50;;;;;;;3.10;100.00;99527.09;5033598;28;20698;-74
2023/12/11 09:45:10;;;;;;;31.52;24.90;;;;;;;3.18;100.00;99519.63;5043519;28;20036;-75
2023/12/11 09:47:43;;;;;;;34.47;25.73;;;;;;;3.23;100.00;99501.91;5036483;28;20136;-75
2023/12/11 09:50:09;;;;;;;31.17;24.85;;;;;;;3.35;100.00;99490.69;5020639;28;20026;-75
2023/12/11 09:52:43;;;;;;;32.40;25.65;;;;;;;3.44;100.00;99478.81;5032552;28;20501;-75
2023/12/11 09:55:09;;;;;;;31.10;25.38;;;;;;;3.55;100.00;99461.53;5031730;28;20516;-75
2023/12/11 09:57:40;;;;;;;30.67;24.25;;;;;;;3.62;100.00;99451.53;5031987;28;20037;-75
2023/12/11 10:00:07;;;;;;;30.85;24.30;;;;;;;3.69;100.00;99458.84;5014291;28;20041;-75
2023/12/11 10:02:33;;;;;;;28.73;23.48;;;;;;;3.77;100.00;99470.56;5031905;28;20025;-75
2023/12/11 10:05:04;;;;;;;30.80;25.08;;;;;;;3.74;100.00;99465.53;5032196;28;20072;-74
2023/12/11 10:07:32;;;;;;;35.97;23.98;;;;;;;3.76;100.00;99461.91;5031802;28;20033;-75
2023/12/11 10:09:59;;;;;;;29.85;23.52;;;;;;;3.84;100.00;99440.47;5032184;28;20042;-74
2023/12/11 10:12:25;;;;;;;31.60;25.40;;;;;;;3.83;100.00;99441.44;5013130;28;20037;-74
2023/12/11 10:15:01;;;;;;;30.35;25.17;;;;;;;3.87;100.00;99422.03;5031247;28;20072;-74
2023/12/11 10:17:27;;;;;;;31.85;24.73;;;;;;;3.83;100.00;99417.97;5013412;28;20033;-74
2023/12/11 10:19:54;;;;;;;32.38;26.13;;;;;;;3.93;100.00;99424.22;5031832;28;20385;-75
2023/12/11 10:22:30;;;;;;;33.65;26.20;;;;;;;3.91;100.00;99458.25;5031528;28;20052;-76
2023/12/11 10:24:58;;;;;;;34.00;26.38;;;;;;;4.13;100.00;99453.22;5031802;28;20440;-76
2023/12/11 10:27:26;;;;;;;33.38;25.58;;;;;;;4.23;100.00;99422.13;5031271;28;20769;-75
2023/12/11 10:30:11;;;;;;;33.38;25.67;;;;;;;4.29;100.00;99413.84;5031227;28;20033;-77
2023/12/11 10:32:37;;;;;;;30.27;24.33;;;;;;;4.36;100.00;99391.56;5031680;28;20076;-75
2023/12/11 10:35:05;;;;;;;31.85;24.60;;;;;;;4.47;100.00;99373.38;5031741;28;20052;-74
2023/12/11 10:37:31;;;;;;;35.08;26.02;;;;;;;4.56;100.00;99360.59;5032030;28;20099;-75
2023/12/11 10:39:57;;;;;;;33.63;25.52;;;;;;;4.61;100.00;99379.38;5036084;28;20041;-74
2023/12/11 10:42:24;;;;;;;35.03;26.15;;;;;;;4.65;100.00;99393.91;5030573;28;20060;-76
2023/12/11 10:44:51;;;;;;;32.22;24.80;;;;;;;4.74;100.00;99391.47;5030481;28;20029;-75
2023/12/11 10:47:18;;;;;;;34.28;26.52;;;;;;;4.80;100.00;99400.66;5030753;28;20091;-75
2023/12/11 10:49:44;;;;;;;36.08;26.10;;;;;;;4.84;100.00;99409.94;5010804;28;20045;-75
2023/12/11 10:52:10;;;;;;;34.90;25.38;;;;;;;4.89;100.00;99403.44;5033824;28;20029;-76
2023/12/11 10:54:43;;;;;;;37.70;25.90;;;;;;;4.93;100.00;99393.59;5024927;28;20556;-76
2023/12/11 10:57:12;;;;;;;30.60;25.95;;;;;;;4.98;100.00;99370.56;5033690;28;20105;-77
2023/12/11 10:59:38;;;;;;;33.47;25.58;;;;;;;5.00;100.00;99360.84;5032374;28;20404;-75
2023/12/11 11:02:06;;;;;;;33.08;26.33;;;;;;;5.00;100.00;99337.31;5029739;28;20032;-75
2023/12/11 11:04:39;;;;;;;32.45;26.73;;;;;;;5.08;100.00;99341.94;5027624;28;20084;-76
2023/12/11 11:07:15;;;;;;;37.53;27.33;;;;;;;5.20;100.00;99335.81;4995744;28;20041;-76
2023/12/11 11:09:41;;;;;;;32.45;27.00;;;;;;;5.29;100.00;99325.50;5029629;28;20071;-76
2023/12/11 11:12:18;;;;;;;33.95;26.65;;;;;;;5.35;100.00;99308.53;5030434;28;20056;-77